createdAt,value
2023-03-12T00:01:53.024Z,99014.66
2023-03-12T00:04:35.748Z,99011.00
2023-03-12T00:07:18.046Z,99005.97
2023-03-12T00:10:06.864Z,99017.66
2023-03-12T00:12:49.027Z,99020.81
2023-03-12T00:15:38.945Z,99020.16
2023-03-12T00:18:20.960Z,99019.88
2023-03-12T00:21:10.805Z,99021.41
2023-03-12T00:24:07.847Z,99032.56
2023-03-12T00:26:50.124Z,99030.31
2023-03-12T00:29:38.809Z,99040.66
2023-03-12T00:32:21.812Z,99037.91
2023-03-12T00:35:11.188Z,99039.25
2023-03-12T00:37:59.124Z,99045.47
2023-03-12T00:40:41.777Z,99044.00
2023-03-12T00:43:30.822Z,99053.34
2023-03-12T00:46:15.051Z,99058.41
2023-03-12T00:49:03.876Z,99055.72
2023-03-12T00:51:46.088Z,99065.66
2023-03-12T00:54:34.854Z,99065.84
2023-03-12T00:57:17.072Z,99071.44
2023-03-12T01:00:05.857Z,99072.09
2023-03-12T01:02:49.048Z,99080.97
2023-03-12T01:05:37.841Z,99079.28
2023-03-12T01:08:20.564Z,99089.84
2023-03-12T01:11:10.813Z,99080.16
2023-03-12T01:13:53.134Z,99087.34
2023-03-12T01:16:41.879Z,99097.69
2023-03-12T01:19:24.380Z,99088.88
2023-03-12T01:22:12.738Z,99100.53
2023-03-12T01:25:01.113Z,99101.84
2023-03-12T01:27:43.781Z,99099.59
2023-03-12T01:30:32.070Z,99116.91
2023-03-12T01:33:14.829Z,99110.91
2023-03-12T01:36:03.885Z,99115.06
2023-03-12T01:38:46.044Z,99112.69
2023-03-12T01:41:37.773Z,99110.31
2023-03-12T01:44:23.087Z,99115.47
2023-03-12T01:47:13.014Z,99120.94
2023-03-12T01:49:58.075Z,99124.13
2023-03-12T01:52:47.780Z,99135.28
2023-03-12T01:55:36.711Z,99118.97
2023-03-12T01:58:26.120Z,99133.06
2023-03-12T02:01:08.821Z,99128.28
2023-03-12T02:04:02.219Z,99140.59
2023-03-12T02:07:11.810Z,99132.53
2023-03-12T02:09:54.000Z,99132.41
2023-03-12T02:12:42.712Z,99145.72
2023-03-12T02:15:25.159Z,99143.53
2023-03-12T02:18:14.816Z,99153.19
2023-03-12T02:21:12.347Z,99157.59
2023-03-12T02:24:16.777Z,99162.19
2023-03-12T02:27:06.712Z,99158.09
2023-03-12T02:29:53.079Z,99158.59
2023-03-12T02:32:45.989Z,99163.16
2023-03-12T02:35:28.099Z,99167.25
2023-03-12T02:38:37.785Z,99173.13
2023-03-12T02:41:26.104Z,99176.59
2023-03-12T02:44:18.814Z,99177.53
2023-03-12T02:47:04.096Z,99174.91
2023-03-12T02:49:52.761Z,99184.19
2023-03-12T02:52:37.366Z,99187.00
2023-03-12T02:55:25.801Z,99182.66
2023-03-12T02:58:08.109Z,99183.34
2023-03-12T03:00:56.800Z,99188.56
2023-03-12T03:03:45.817Z,99187.88
2023-03-12T03:06:35.048Z,99190.38
2023-03-12T03:09:17.843Z,99198.41
2023-03-12T03:11:59.922Z,99201.88
2023-03-12T03:14:49.715Z,99205.25
2023-03-12T03:17:39.773Z,99211.72
2023-03-12T03:20:23.765Z,99214.78
2023-03-12T03:23:14.223Z,99224.31
2023-03-12T03:26:03.532Z,99227.50
2023-03-12T03:28:46.734Z,99226.13
2023-03-12T03:31:35.638Z,99229.41
2023-03-12T03:34:24.784Z,99233.19
2023-03-12T03:37:14.041Z,99239.75
2023-03-12T03:39:55.799Z,99244.78
2023-03-12T03:42:45.264Z,99239.72
2023-03-12T03:45:27.818Z,99246.75
2023-03-12T03:48:16.067Z,99245.13
2023-03-12T03:50:58.767Z,99251.63
2023-03-12T03:53:51.097Z,99247.25
2023-03-12T03:56:33.728Z,99258.25
2023-03-12T03:59:23.754Z,99253.13
2023-03-12T04:02:07.073Z,99254.47
2023-03-12T04:04:55.742Z,99258.56
2023-03-12T04:07:44.685Z,99268.97
2023-03-12T04:10:37.716Z,99266.75
2023-03-12T04:13:19.969Z,99268.25
2023-03-12T04:16:08.850Z,99274.03
2023-03-12T04:18:58.793Z,99268.88
2023-03-12T04:21:40.957Z,99269.41
2023-03-12T04:24:36.076Z,99268.19
2023-03-12T04:27:24.048Z,99269.63
2023-03-12T04:30:06.733Z,99273.28
2023-03-12T04:32:48.990Z,99270.13
2023-03-12T04:35:37.782Z,99277.00
2023-03-12T04:38:27.102Z,99270.28
2023-03-12T04:41:18.720Z,99272.25
2023-03-12T04:44:07.175Z,99277.78
2023-03-12T04:46:57.802Z,99274.53
2023-03-12T04:49:41.195Z,99273.19
2023-03-12T04:52:29.729Z,99269.78
2023-03-12T04:55:13.037Z,99267.50
2023-03-12T04:58:01.813Z,99266.97
2023-03-12T05:00:50.817Z,99262.31
2023-03-12T05:03:39.769Z,99263.75
2023-03-12T05:06:30.736Z,99266.75
2023-03-12T05:09:13.115Z,99264.97
2023-03-12T05:12:01.819Z,99262.00
2023-03-12T05:14:45.049Z,99256.22
2023-03-12T05:17:33.774Z,99251.16
2023-03-12T05:20:18.802Z,99258.56
2023-03-12T05:23:07.795Z,99255.22
2023-03-12T05:25:56.114Z,99239.91
2023-03-12T05:28:38.859Z,99243.06
2023-03-12T05:31:22.519Z,99238.63
2023-03-12T05:34:11.736Z,99241.03
2023-03-12T05:37:01.632Z,99237.09
2023-03-12T05:39:54.837Z,99235.13
2023-03-12T05:42:45.054Z,99238.84
2023-03-12T05:45:27.839Z,99233.94
2023-03-12T05:48:17.724Z,99236.28
2023-03-12T05:51:03.087Z,99246.38
2023-03-12T05:53:57.487Z,99243.16
2023-03-12T05:56:52.049Z,99241.66
2023-03-12T05:59:43.763Z,99241.00
2023-03-12T06:02:32.872Z,99240.13
2023-03-12T06:05:16.463Z,99231.44
2023-03-12T06:08:06.838Z,99234.81
2023-03-12T06:10:58.083Z,99232.13
2023-03-12T06:13:40.777Z,99230.06
2023-03-12T06:16:32.817Z,99226.69
2023-03-12T06:19:22.765Z,99223.78
2023-03-12T06:22:11.732Z,99222.00
2023-03-12T06:24:54.710Z,99223.25
2023-03-12T06:27:43.794Z,99222.50
2023-03-12T06:30:26.042Z,99215.53
2023-03-12T06:33:16.793Z,99207.81
2023-03-12T06:36:09.045Z,99207.28
2023-03-12T06:38:58.144Z,99207.53
2023-03-12T06:41:40.030Z,99201.81
2023-03-12T06:44:28.805Z,99192.13
2023-03-12T06:47:11.080Z,99197.19
2023-03-12T06:49:59.800Z,99200.81
2023-03-12T06:52:42.076Z,99191.47
2023-03-12T06:55:30.716Z,99182.75
2023-03-12T06:58:13.185Z,99179.19
2023-03-12T07:01:02.760Z,99176.31
2023-03-12T07:03:45.097Z,99172.53
2023-03-12T07:06:33.862Z,99168.06
2023-03-12T07:09:16.126Z,99175.03
2023-03-12T07:12:04.852Z,99163.72
2023-03-12T07:14:47.048Z,99160.50
2023-03-12T07:17:35.781Z,99163.22
2023-03-12T07:20:19.000Z,99153.63
2023-03-12T07:23:08.730Z,99153.16
2023-03-12T07:25:58.052Z,99145.97
2023-03-12T07:28:40.746Z,99141.22
2023-03-12T07:31:29.216Z,99139.22
2023-03-12T07:34:13.874Z,99133.69
2023-03-12T07:37:02.235Z,99138.84
2023-03-12T07:39:44.836Z,99124.91
2023-03-12T07:42:27.086Z,99116.06
2023-03-12T07:45:15.717Z,99113.19
2023-03-12T07:48:04.128Z,99118.03
2023-03-12T07:50:46.770Z,99107.81
2023-03-12T07:53:36.173Z,99104.22
2023-03-12T07:56:17.946Z,99091.50
2023-03-12T07:59:00.003Z,99081.47
2023-03-12T08:01:48.915Z,99089.97
2023-03-12T08:04:37.144Z,99091.69
2023-03-12T08:07:19.817Z,99080.34
2023-03-12T08:10:14.058Z,99076.00
2023-03-12T08:12:56.818Z,99084.56
2023-03-12T08:15:45.788Z,99083.06
2023-03-12T08:18:29.183Z,99067.81
2023-03-12T08:21:17.787Z,99068.34
2023-03-12T08:24:06.751Z,99063.34
2023-03-12T08:26:57.119Z,99045.72
2023-03-12T08:29:40.702Z,99039.88
2023-03-12T08:32:23.168Z,99029.56
2023-03-12T08:35:13.788Z,99024.97
2023-03-12T08:38:03.177Z,99027.63
2023-03-12T08:40:45.726Z,99024.22
2023-03-12T08:43:36.095Z,99027.50
2023-03-12T08:46:19.147Z,99018.59
2023-03-12T08:49:07.154Z,99007.94
2023-03-12T08:51:48.805Z,99015.13
2023-03-12T08:54:43.625Z,99014.28
2023-03-12T08:57:33.772Z,99002.41
2023-03-12T09:00:19.048Z,98993.38
2023-03-12T09:03:07.776Z,98986.88
2023-03-12T09:05:51.098Z,98983.28
2023-03-12T09:08:41.843Z,98980.72
2023-03-12T09:11:23.992Z,98978.63
2023-03-12T09:14:50.201Z,98975.25
2023-03-12T09:17:15.253Z,98966.13
2023-03-12T09:20:06.734Z,98963.56
2023-03-12T09:22:56.773Z,98958.88
2023-03-12T09:25:52.780Z,98955.53
2023-03-12T09:28:35.129Z,98949.31
2023-03-12T09:31:23.739Z,98933.56
2023-03-12T09:34:13.062Z,98927.31
2023-03-12T09:36:55.825Z,98930.84
2023-03-12T09:39:44.194Z,98931.72
2023-03-12T09:42:35.787Z,98926.22
2023-03-12T09:45:36.131Z,98927.19
2023-03-12T09:48:47.438Z,98920.47
2023-03-12T09:51:37.166Z,98924.38
2023-03-12T09:54:52.821Z,98915.38
2023-03-12T09:57:42.063Z,98911.56
2023-03-12T10:00:27.836Z,98910.94
2023-03-12T10:03:38.221Z,98902.41
2023-03-12T10:06:24.806Z,98902.59
2023-03-12T10:09:28.256Z,98908.59
2023-03-12T10:12:58.797Z,98898.97
2023-03-12T10:15:59.242Z,98899.97
2023-03-12T10:19:04.781Z,98899.34
2023-03-12T10:22:16.138Z,98899.63
2023-03-12T10:25:21.866Z,98895.81
2023-03-12T10:28:28.217Z,98899.56
2023-03-12T10:31:21.823Z,98899.38
2023-03-12T10:34:25.086Z,98891.72
2023-03-12T10:37:20.783Z,98897.41
2023-03-12T10:40:03.464Z,98899.16
2023-03-12T10:42:54.720Z,98888.81
2023-03-12T10:46:08.116Z,98895.97
2023-03-12T10:48:51.744Z,98891.09
2023-03-12T10:51:40.037Z,98889.47
2023-03-12T10:54:31.751Z,98880.19
2023-03-12T10:57:16.371Z,98894.44
2023-03-12T11:00:05.826Z,98891.72
2023-03-12T11:02:56.462Z,98884.84
2023-03-12T11:05:45.811Z,98890.31
2023-03-12T11:08:44.170Z,98883.38
2023-03-12T11:11:40.844Z,98879.53
2023-03-12T11:14:31.253Z,98879.94
2023-03-12T11:17:36.751Z,98873.19
2023-03-12T11:20:37.744Z,98875.22
2023-03-12T11:23:32.847Z,98871.28
2023-03-12T11:26:22.220Z,98881.34
2023-03-12T11:29:31.861Z,98869.25
2023-03-12T11:32:17.265Z,98861.16
2023-03-12T11:35:06.722Z,98865.38
2023-03-12T11:38:07.066Z,98857.81
2023-03-12T11:41:10.682Z,98862.53
2023-03-12T11:44:13.696Z,98857.50
2023-03-12T11:47:28.057Z,98862.25
2023-03-12T11:50:40.712Z,98858.50
2023-03-12T11:53:32.069Z,98857.50
2023-03-12T11:56:36.073Z,98862.72
2023-03-12T11:59:41.082Z,98858.47
2023-03-12T12:02:46.802Z,98856.91
2023-03-12T12:05:58.685Z,98854.78
2023-03-12T12:09:16.071Z,98857.09
2023-03-12T12:12:36.843Z,98852.34
2023-03-12T12:15:58.148Z,98856.97
2023-03-12T12:19:04.114Z,98855.72
2023-03-12T12:22:06.231Z,98858.75
2023-03-12T12:25:29.728Z,98851.50
2023-03-12T12:29:13.827Z,98857.81
2023-03-12T12:32:00.539Z,98857.38
2023-03-12T12:35:30.832Z,98864.22
2023-03-12T12:38:31.632Z,98867.22
2023-03-12T12:41:35.722Z,98870.81
2023-03-12T12:44:22.638Z,98870.81
2023-03-12T12:47:20.751Z,98876.84
2023-03-12T12:50:04.854Z,98877.50
2023-03-12T12:52:53.750Z,98874.84
2023-03-12T12:56:02.076Z,98881.50
2023-03-12T12:58:57.776Z,98878.88
2023-03-12T13:01:40.977Z,98881.94
2023-03-12T13:04:41.712Z,98890.69
2023-03-12T13:07:25.234Z,98892.59
2023-03-12T13:10:21.807Z,98889.34
2023-03-12T13:13:14.229Z,98897.06
2023-03-12T13:16:03.846Z,98895.75
2023-03-12T13:19:09.042Z,98899.59
2023-03-12T13:22:10.738Z,98897.81
2023-03-12T13:25:18.162Z,98916.56
2023-03-12T13:28:30.735Z,98904.34
2023-03-12T13:31:32.110Z,98909.56
2023-03-12T13:34:28.152Z,98911.69
2023-03-12T13:37:11.049Z,98901.97
2023-03-12T13:39:59.721Z,98908.44
2023-03-12T13:42:48.028Z,98912.56
2023-03-12T13:45:39.753Z,98913.94
2023-03-12T13:48:29.339Z,98912.09
2023-03-12T13:51:33.787Z,98918.66
2023-03-12T13:54:26.195Z,98918.97
2023-03-12T13:57:20.696Z,98923.94
2023-03-12T14:00:06.646Z,98924.53
2023-03-12T14:03:05.713Z,98928.03
2023-03-12T14:06:06.200Z,98924.28
2023-03-12T14:09:20.745Z,98920.53
2023-03-12T14:12:27.837Z,98921.03
2023-03-12T14:15:30.752Z,98918.56
2023-03-12T14:18:31.470Z,98922.25
2023-03-12T14:21:24.970Z,98925.03
2023-03-12T14:24:08.023Z,98935.41
2023-03-12T14:26:57.736Z,98940.03
2023-03-12T14:29:47.187Z,98932.53
2023-03-12T14:32:39.887Z,98939.59
2023-03-12T14:35:54.139Z,98946.66
2023-03-12T14:38:50.735Z,98942.06
2023-03-12T14:41:51.623Z,98942.66
2023-03-12T14:44:44.770Z,98950.50
2023-03-12T14:47:27.169Z,98951.63
2023-03-12T14:50:24.839Z,98953.84
2023-03-12T14:53:21.137Z,98958.22
2023-03-12T14:56:18.699Z,98964.16
2023-03-12T14:59:01.044Z,98968.25
2023-03-12T15:01:49.941Z,98968.50
2023-03-12T15:04:33.084Z,98976.94
2023-03-12T15:07:26.741Z,98980.47
2023-03-12T15:10:14.002Z,98983.97
2023-03-12T15:13:05.833Z,98978.56
2023-03-12T15:15:56.595Z,98983.72
2023-03-12T15:18:45.798Z,98982.91
2023-03-12T15:21:29.053Z,98986.16
2023-03-12T15:24:21.027Z,98981.28
2023-03-12T15:27:36.722Z,98985.59
2023-03-12T15:30:39.085Z,98997.53
2023-03-12T15:33:25.730Z,98989.38
2023-03-12T15:36:25.820Z,98995.34
2023-03-12T15:39:12.096Z,99003.44
2023-03-12T15:42:01.818Z,99003.94
2023-03-12T15:44:56.150Z,98994.50
2023-03-12T15:47:48.753Z,99003.69
2023-03-12T15:50:56.858Z,99006.94
2023-03-12T15:53:46.003Z,99007.69
2023-03-12T15:56:31.728Z,99012.25
2023-03-12T15:59:37.008Z,99016.06
2023-03-12T16:02:20.806Z,99014.91
2023-03-12T16:05:09.082Z,99020.88
2023-03-12T16:07:51.830Z,99013.63
2023-03-12T16:10:42.986Z,99014.53
2023-03-12T16:13:30.771Z,99014.84
2023-03-12T16:16:21.194Z,99010.22
2023-03-12T16:19:02.848Z,99007.00
2023-03-12T16:21:52.297Z,99008.31
2023-03-12T16:24:33.769Z,99005.06
2023-03-12T16:27:32.832Z,99011.84
2023-03-12T16:30:39.812Z,99007.25
2023-03-12T16:33:25.109Z,99001.84
2023-03-12T16:36:24.201Z,99007.00
2023-03-12T16:39:06.209Z,99006.16
2023-03-12T16:41:55.813Z,99005.09
2023-03-12T16:44:42.035Z,99002.38
2023-03-12T16:47:30.775Z,98998.56
2023-03-12T16:50:23.507Z,99007.28
2023-03-12T16:53:12.751Z,99007.00
2023-03-12T16:56:07.764Z,99003.72
2023-03-12T16:58:57.694Z,98999.94
2023-03-12T17:01:40.071Z,98999.69
2023-03-12T17:04:28.801Z,98994.22
2023-03-12T17:07:11.050Z,98999.38
2023-03-12T17:09:59.810Z,99003.63
2023-03-12T17:12:54.673Z,98995.19
2023-03-12T17:15:37.291Z,99000.31
2023-03-12T17:18:26.688Z,99002.50
2023-03-12T17:21:12.731Z,98995.31
2023-03-12T17:24:03.716Z,99000.72
2023-03-12T17:26:54.378Z,98995.66
2023-03-12T17:29:36.993Z,98996.19
2023-03-12T17:32:26.271Z,98993.16
2023-03-12T17:35:10.745Z,98991.50
2023-03-12T17:37:53.143Z,98988.25
2023-03-12T17:40:43.730Z,98983.38
2023-03-12T17:43:26.113Z,98976.06
2023-03-12T17:46:19.805Z,98983.63
2023-03-12T17:49:09.056Z,98978.47
2023-03-12T17:51:52.729Z,98981.41
2023-03-12T17:54:42.201Z,98968.47
2023-03-12T17:57:26.069Z,98977.91
2023-03-12T18:00:13.715Z,98972.22
2023-03-12T18:03:02.830Z,98974.91
2023-03-12T18:05:51.042Z,98981.44
2023-03-12T18:08:33.744Z,98983.06
2023-03-12T18:11:16.000Z,98983.00
2023-03-12T18:14:04.820Z,98987.59
2023-03-12T18:16:53.089Z,98988.31
2023-03-12T18:19:50.730Z,98984.25
2023-03-12T18:22:33.054Z,98981.53
2023-03-12T18:25:21.756Z,98988.56
2023-03-12T18:28:16.600Z,98986.13
2023-03-12T18:31:05.778Z,98989.94
2023-03-12T18:33:48.052Z,98996.78
2023-03-12T18:36:36.733Z,99003.25
2023-03-12T18:39:19.122Z,99006.72
2023-03-12T18:42:07.684Z,98994.19
2023-03-12T18:44:58.708Z,98998.59
2023-03-12T18:47:51.256Z,99001.66
2023-03-12T18:50:33.711Z,99011.41
2023-03-12T18:53:22.033Z,99012.16
2023-03-12T18:56:05.786Z,99010.44
2023-03-12T18:58:54.021Z,99007.56
2023-03-12T19:01:36.782Z,99008.81
2023-03-12T19:04:20.692Z,98998.31
2023-03-12T19:07:09.686Z,99003.19
2023-03-12T19:09:58.060Z,99000.69
2023-03-12T19:12:51.381Z,99008.22
2023-03-12T19:15:47.209Z,98992.34
2023-03-12T19:18:29.751Z,98985.53
2023-03-12T19:21:19.608Z,98984.38
2023-03-12T19:24:02.779Z,98981.13
2023-03-12T19:26:57.729Z,98977.31
2023-03-12T19:29:46.103Z,98974.13
2023-03-12T19:32:33.351Z,98977.38
2023-03-12T19:35:31.199Z,98975.69
2023-03-12T19:38:13.705Z,98968.34
2023-03-12T19:41:05.035Z,98972.66
2023-03-12T19:43:48.720Z,98980.75
2023-03-12T19:46:38.742Z,98975.94
2023-03-12T19:49:21.543Z,98973.72
2023-03-12T19:52:13.341Z,98982.69
2023-03-12T19:55:04.197Z,98981.13
2023-03-12T19:57:53.768Z,98974.03
2023-03-12T20:00:42.684Z,98969.59
2023-03-12T20:03:25.121Z,98979.53
2023-03-12T20:06:14.715Z,98970.00
2023-03-12T20:09:03.001Z,98976.41
2023-03-12T20:11:45.780Z,98986.28
2023-03-12T20:14:35.125Z,98975.72
2023-03-12T20:17:18.077Z,98979.19
2023-03-12T20:20:07.449Z,98970.81
2023-03-12T20:22:49.659Z,98976.19
2023-03-12T20:25:31.915Z,98968.59
2023-03-12T20:28:20.709Z,98982.59
2023-03-12T20:31:20.502Z,98974.69
2023-03-12T20:34:03.697Z,98976.59
2023-03-12T20:36:51.978Z,98979.88
2023-03-12T20:39:33.709Z,98984.25
2023-03-12T20:42:22.685Z,98972.16
2023-03-12T20:45:05.308Z,98980.34
2023-03-12T20:47:53.739Z,98989.47
2023-03-12T20:50:37.036Z,98986.09
2023-03-12T20:53:25.702Z,98971.59
2023-03-12T20:56:08.000Z,98968.03
2023-03-12T20:58:56.731Z,98960.97
2023-03-12T21:01:39.011Z,98954.50
2023-03-12T21:04:27.765Z,98957.78
2023-03-12T21:07:10.029Z,98949.25
2023-03-12T21:09:58.714Z,98959.66
2023-03-12T21:12:41.061Z,98959.06
2023-03-12T21:15:30.687Z,98956.34
2023-03-12T21:18:12.973Z,98956.00
2023-03-12T21:21:02.073Z,98957.88
2023-03-12T21:23:45.143Z,98950.56
2023-03-12T21:26:36.460Z,98948.09
2023-03-12T21:29:31.721Z,98933.22
2023-03-12T21:32:13.851Z,98938.84
2023-03-12T21:35:03.692Z,98936.41
2023-03-12T21:37:45.894Z,98939.88
2023-03-12T21:40:34.700Z,98932.06
2023-03-12T21:43:23.014Z,98935.00
2023-03-12T21:46:04.769Z,98930.66
2023-03-12T21:48:55.699Z,98931.19
2023-03-12T21:51:44.710Z,98930.31
2023-03-12T21:54:34.721Z,98930.00
2023-03-12T21:57:17.053Z,98929.75
2023-03-12T22:00:05.732Z,98925.31
2023-03-12T22:02:51.209Z,98925.56
2023-03-12T22:05:39.741Z,98930.44
2023-03-12T22:08:22.044Z,98914.53
2023-03-12T22:11:11.730Z,98923.19
2023-03-12T22:13:54.078Z,98911.09
2023-03-12T22:16:42.786Z,98921.38
2023-03-12T22:19:25.491Z,98910.78
2023-03-12T22:22:14.946Z,98908.91
2023-03-12T22:24:56.989Z,98909.50
2023-03-12T22:27:45.750Z,98913.78
2023-03-12T22:30:28.038Z,98910.25
2023-03-12T22:33:17.705Z,98915.59
2023-03-12T22:36:00.089Z,98912.16
2023-03-12T22:38:48.687Z,98919.09
2023-03-12T22:41:34.073Z,98914.75
2023-03-12T22:44:23.645Z,98911.31
2023-03-12T22:47:12.758Z,98915.88
2023-03-12T22:50:01.013Z,98912.09
2023-03-12T22:52:43.697Z,98917.75
2023-03-12T22:55:25.940Z,98915.06
2023-03-12T22:58:14.663Z,98922.84
2023-03-12T23:01:18.154Z,98923.09
2023-03-12T23:04:00.648Z,98925.72
2023-03-12T23:06:49.675Z,98925.97
2023-03-12T23:09:31.909Z,98924.91
2023-03-12T23:12:20.707Z,98928.81
2023-03-12T23:15:02.975Z,98928.81
2023-03-12T23:17:51.642Z,98935.75
2023-03-12T23:20:33.969Z,98933.53
2023-03-12T23:23:25.753Z,98934.56
2023-03-12T23:26:09.058Z,98935.63
2023-03-12T23:29:00.664Z,98944.28
2023-03-12T23:31:47.515Z,98953.66
2023-03-12T23:34:36.701Z,98948.84
2023-03-12T23:37:20.034Z,98946.03
2023-03-12T23:40:08.757Z,98954.38
2023-03-12T23:42:52.024Z,98945.03
2023-03-12T23:45:40.744Z,98944.78
2023-03-12T23:48:29.721Z,98947.88
2023-03-12T23:51:13.673Z,98954.78
2023-03-12T23:54:04.935Z,98951.69
2023-03-12T23:56:54.151Z,98947.97
2023-03-12T23:59:35.703Z,98955.47
